createdAt,value
2019-03-19T00:00:03.980Z,66.15
2019-03-19T00:01:03.989Z,65.30
2019-03-19T00:02:03.992Z,64.73
2019-03-19T00:03:03.990Z,64.54
2019-03-19T00:04:03.994Z,63.98
2019-03-19T00:05:04.000Z,63.98
2019-03-19T00:06:04.007Z,64.45
2019-03-19T00:07:04.011Z,64.64
2019-03-19T00:08:04.012Z,65.48
2019-03-19T00:09:04.014Z,65.67
2019-03-19T00:10:04.016Z,65.77
2019-03-19T00:11:04.024Z,65.67
2019-03-19T00:12:04.030Z,66.05
2019-03-19T00:13:04.031Z,65.96
2019-03-19T00:14:04.032Z,66.05
2019-03-19T00:15:04.039Z,66.34
2019-03-19T00:16:04.043Z,66.71
2019-03-19T00:17:04.048Z,66.15
2019-03-19T00:18:04.060Z,66.52
2019-03-19T00:19:04.055Z,66.34
2019-03-19T00:20:04.059Z,65.96
2019-03-19T00:21:04.059Z,65.96
2019-03-19T00:22:04.063Z,66.05
2019-03-19T00:23:04.101Z,65.86
2019-03-19T00:24:04.075Z,65.96
2019-03-19T00:25:04.079Z,66.15
2019-03-19T00:26:04.082Z,65.77
2019-03-19T00:27:04.084Z,65.58
2019-03-19T00:28:04.092Z,64.92
2019-03-19T00:29:04.095Z,64.83
2019-03-19T00:30:04.095Z,64.73
2019-03-19T00:31:04.102Z,64.54
2019-03-19T00:32:04.108Z,64.92
2019-03-19T00:33:04.105Z,64.73
2019-03-19T00:34:04.111Z,64.64
2019-03-19T00:35:04.124Z,64.83
2019-03-19T00:36:04.122Z,64.54
2019-03-19T00:37:04.128Z,63.98
2019-03-19T00:38:04.128Z,63.89
2019-03-19T00:39:04.131Z,63.51
2019-03-19T00:40:04.135Z,64.36
2019-03-19T00:41:04.137Z,64.36
2019-03-19T00:42:04.145Z,63.60
2019-03-19T00:43:04.151Z,63.32
2019-03-19T00:44:04.154Z,62.75
2019-03-19T00:45:04.157Z,62.94
2019-03-19T00:46:04.159Z,63.13
2019-03-19T00:47:04.161Z,63.89
2019-03-19T00:48:04.166Z,63.79
2019-03-19T00:49:06.640Z,63.89
2019-03-19T00:50:04.173Z,63.89
2019-03-19T00:51:04.176Z,64.73
2019-03-19T00:52:04.183Z,64.45
2019-03-19T00:53:04.185Z,64.07
2019-03-19T00:54:04.189Z,64.45
2019-03-19T00:55:04.206Z,64.83
2019-03-19T00:56:04.194Z,64.51
2019-03-19T00:57:04.199Z,65.11
2019-03-19T00:58:04.199Z,65.01
2019-03-19T00:59:04.203Z,64.92
2019-03-19T01:00:04.208Z,65.30
2019-03-19T01:01:04.211Z,64.83
2019-03-19T01:02:04.213Z,64.07
2019-03-19T01:03:04.217Z,63.60
2019-03-19T01:04:04.223Z,63.70
2019-03-19T01:05:04.225Z,63.79
2019-03-19T01:06:04.229Z,63.60
2019-03-19T01:07:04.231Z,63.70
2019-03-19T01:08:04.239Z,64.26
2019-03-19T01:09:04.241Z,64.54
2019-03-19T01:10:04.244Z,64.92
2019-03-19T01:11:04.245Z,65.11
2019-03-19T01:12:04.249Z,65.11
2019-03-19T01:13:04.252Z,65.58
2019-03-19T01:14:04.255Z,65.58
2019-03-19T01:15:04.261Z,64.45
2019-03-19T01:16:04.268Z,63.57
2019-03-19T01:17:04.265Z,63.38
2019-03-19T01:18:04.269Z,64.14
2019-03-19T01:19:04.284Z,64.23
2019-03-19T01:20:04.276Z,64.79
2019-03-19T01:21:04.282Z,65.55
2019-03-19T01:22:04.292Z,65.83
2019-03-19T01:23:04.294Z,66.43
2019-03-19T01:24:04.292Z,66.43
2019-03-19T01:25:04.299Z,66.24
2019-03-19T01:26:04.303Z,65.83
2019-03-19T01:27:04.305Z,65.45
2019-03-19T01:28:04.318Z,65.83
2019-03-19T01:29:04.314Z,66.49
2019-03-19T01:30:04.316Z,66.87
2019-03-19T01:31:04.314Z,67.06
2019-03-19T01:32:04.323Z,66.96
2019-03-19T01:33:04.323Z,66.68
2019-03-19T01:34:04.324Z,66.87
2019-03-19T01:35:04.333Z,66.96
2019-03-19T01:36:04.334Z,67.06
2019-03-19T01:37:04.339Z,67.06
2019-03-19T01:38:04.342Z,67.15
2019-03-19T01:39:04.345Z,66.96
2019-03-19T01:40:04.349Z,67.06
2019-03-19T01:41:04.351Z,67.15
2019-03-19T01:42:04.356Z,67.06
2019-03-19T01:43:04.358Z,66.77
2019-03-19T01:44:04.358Z,66.40
2019-03-19T01:45:04.362Z,65.64
2019-03-19T01:46:04.366Z,64.61
2019-03-19T01:47:04.368Z,64.51
2019-03-19T01:48:04.375Z,64.32
2019-03-19T01:49:04.377Z,64.79
2019-03-19T01:50:04.376Z,64.70
2019-03-19T01:51:04.383Z,64.51
2019-03-19T01:52:04.387Z,65.17
2019-03-19T01:53:04.387Z,65.45
2019-03-19T01:54:04.390Z,65.55
2019-03-19T01:55:04.394Z,65.92
2019-03-19T01:56:05.337Z,66.49
2019-03-19T01:57:04.403Z,66.58
2019-03-19T01:58:04.405Z,66.49
2019-03-19T01:59:04.405Z,65.92
2019-03-19T02:00:04.414Z,66.11
2019-03-19T02:01:04.414Z,65.36
2019-03-19T02:02:04.414Z,64.23
2019-03-19T02:03:04.423Z,64.42
2019-03-19T02:04:04.425Z,64.61
2019-03-19T02:05:04.432Z,65.17
2019-03-19T02:06:04.432Z,65.26
2019-03-19T02:07:04.436Z,65.55
2019-03-19T02:08:04.441Z,65.36
2019-03-19T02:09:04.443Z,64.89
2019-03-19T02:10:04.447Z,64.14
2019-03-19T02:11:04.445Z,63.66
2019-03-19T02:12:04.451Z,64.04
2019-03-19T02:13:04.460Z,64.70
2019-03-19T02:14:04.461Z,64.98
2019-03-19T02:15:04.464Z,64.14
2019-03-19T02:16:04.472Z,63.47
2019-03-19T02:17:04.466Z,63.57
2019-03-19T02:18:04.468Z,63.57
2019-03-19T02:19:04.478Z,63.66
2019-03-19T02:20:04.479Z,63.19
2019-03-19T02:21:04.478Z,63.76
2019-03-19T02:22:04.491Z,63.47
2019-03-19T02:23:04.822Z,64.04
2019-03-19T02:24:04.492Z,64.51
2019-03-19T02:25:04.491Z,65.08
2019-03-19T02:26:04.494Z,65.36
2019-03-19T02:27:04.502Z,65.45
2019-03-19T02:28:04.512Z,65.45
2019-03-19T02:29:04.507Z,64.51
2019-03-19T02:30:04.513Z,64.04
2019-03-19T02:31:04.520Z,64.04
2019-03-19T02:32:04.517Z,64.42
2019-03-19T02:33:04.517Z,63.95
2019-03-19T02:34:04.526Z,63.66
2019-03-19T02:35:04.535Z,64.32
2019-03-19T02:36:04.532Z,64.23
2019-03-19T02:37:04.533Z,64.61
2019-03-19T02:38:04.540Z,65.64
2019-03-19T02:39:04.539Z,66.11
2019-03-19T02:40:04.541Z,66.21
2019-03-19T02:41:04.545Z,66.87
2019-03-19T02:42:04.546Z,67.06
2019-03-19T02:43:04.564Z,66.87
2019-03-19T02:44:04.569Z,66.68
2019-03-19T02:45:04.557Z,66.96
2019-03-19T02:46:04.560Z,66.58
2019-03-19T02:47:04.560Z,67.62
2019-03-19T02:48:04.567Z,67.91
2019-03-19T02:49:04.571Z,67.72
2019-03-19T02:50:04.571Z,67.91
2019-03-19T02:51:04.573Z,67.81
2019-03-19T02:52:04.585Z,68.00
2019-03-19T02:53:04.582Z,68.00
2019-03-19T02:54:04.582Z,65.73
2019-03-19T02:55:04.593Z,63.47
2019-03-19T02:56:04.593Z,63.38
2019-03-19T02:57:04.593Z,64.04
2019-03-19T02:58:04.594Z,65.17
2019-03-19T02:59:04.599Z,66.30
2019-03-19T03:00:04.605Z,66.77
2019-03-19T03:01:04.604Z,66.77
2019-03-19T03:02:04.606Z,66.87
2019-03-19T03:03:04.612Z,67.62
2019-03-19T03:04:04.617Z,67.62
2019-03-19T03:05:04.635Z,67.34
2019-03-19T03:06:04.633Z,67.15
2019-03-19T03:07:04.625Z,67.34
2019-03-19T03:08:04.631Z,67.72
2019-03-19T03:09:04.626Z,67.62
2019-03-19T03:10:04.636Z,67.72
2019-03-19T03:11:04.640Z,67.34
2019-03-19T03:12:04.659Z,66.96
2019-03-19T03:13:04.647Z,66.40
2019-03-19T03:14:04.643Z,65.73
2019-03-19T03:15:04.646Z,65.26
2019-03-19T03:16:04.651Z,65.45
2019-03-19T03:17:04.657Z,65.45
2019-03-19T03:18:04.652Z,65.45
2019-03-19T03:19:04.657Z,65.45
2019-03-19T03:20:04.663Z,65.55
2019-03-19T03:21:04.663Z,65.64
2019-03-19T03:22:04.670Z,65.45
2019-03-19T03:23:04.675Z,65.45
2019-03-19T03:24:04.667Z,65.45
2019-03-19T03:25:04.672Z,65.26
2019-03-19T03:26:04.686Z,65.55
2019-03-19T03:27:04.693Z,66.11
2019-03-19T03:28:04.680Z,66.30
2019-03-19T03:29:04.691Z,66.77
2019-03-19T03:30:04.689Z,66.96
2019-03-19T03:31:04.690Z,66.87
2019-03-19T03:32:04.705Z,67.06
2019-03-19T03:33:04.745Z,66.49
2019-03-19T03:34:04.708Z,66.11
2019-03-19T03:35:04.708Z,66.68
2019-03-19T03:36:04.703Z,66.40
2019-03-19T03:37:04.708Z,66.11
2019-03-19T03:38:04.733Z,66.49
2019-03-19T03:39:04.716Z,66.87
2019-03-19T03:40:04.725Z,67.91
2019-03-19T03:41:04.715Z,68.00
2019-03-19T03:42:04.719Z,68.76
2019-03-19T03:43:04.735Z,69.23
2019-03-19T03:44:04.731Z,69.51
2019-03-19T03:45:04.730Z,69.51
2019-03-19T03:46:04.729Z,69.79
2019-03-19T03:47:04.737Z,70.26
2019-03-19T03:48:04.737Z,69.98
2019-03-19T03:49:04.741Z,69.79
2019-03-19T03:50:04.742Z,69.98
2019-03-19T03:51:04.753Z,70.26
2019-03-19T03:52:04.826Z,70.73
2019-03-19T03:53:04.754Z,70.92
2019-03-19T03:54:04.754Z,70.45
2019-03-19T03:55:04.765Z,69.98
2019-03-19T03:56:04.761Z,69.60
2019-03-19T03:57:04.762Z,69.51
2019-03-19T03:58:04.761Z,69.23
2019-03-19T03:59:04.766Z,68.66
2019-03-19T04:00:04.771Z,67.91
2019-03-19T04:01:04.771Z,68.19
2019-03-19T04:02:04.775Z,68.29
2019-03-19T04:03:04.784Z,67.62
2019-03-19T04:04:04.783Z,68.00
2019-03-19T04:05:04.799Z,67.81
2019-03-19T04:06:04.802Z,67.81
2019-03-19T04:07:04.793Z,68.00
2019-03-19T04:08:04.793Z,68.29
2019-03-19T04:09:04.801Z,67.91
2019-03-19T04:10:04.802Z,68.38
2019-03-19T04:11:04.805Z,67.81
2019-03-19T04:12:04.807Z,67.81
2019-03-19T04:13:04.809Z,67.72
2019-03-19T04:14:04.810Z,67.43
2019-03-19T04:15:04.815Z,68.10
2019-03-19T04:16:04.818Z,67.53
2019-03-19T04:17:04.817Z,67.62
2019-03-19T04:18:04.823Z,67.72
2019-03-19T04:19:04.826Z,67.25
2019-03-19T04:20:04.824Z,67.72
2019-03-19T04:21:04.828Z,67.62
2019-03-19T04:22:04.835Z,67.81
2019-03-19T04:23:04.831Z,67.62
2019-03-19T04:24:04.835Z,67.34
2019-03-19T04:25:04.846Z,66.96
2019-03-19T04:26:04.841Z,66.40
2019-03-19T04:27:15.391Z,67.25
2019-03-19T04:28:04.850Z,66.87
2019-03-19T04:29:04.858Z,66.87
2019-03-19T04:30:04.862Z,67.06
2019-03-19T04:31:04.855Z,66.96
2019-03-19T04:32:04.867Z,66.77
2019-03-19T04:33:04.858Z,65.64
2019-03-19T04:34:04.865Z,65.36
2019-03-19T04:35:04.867Z,65.45
2019-03-19T04:36:04.870Z,64.98
2019-03-19T04:37:04.872Z,65.45
2019-03-19T04:38:04.874Z,65.64
2019-03-19T04:39:04.876Z,65.26
2019-03-19T04:40:04.883Z,64.51
2019-03-19T04:41:04.888Z,62.91
2019-03-19T04:42:04.884Z,62.15
2019-03-19T04:43:04.888Z,62.43
2019-03-19T04:44:04.893Z,62.91
2019-03-19T04:45:04.919Z,63.38
2019-03-19T04:46:04.895Z,63.29
2019-03-19T04:47:04.899Z,62.72
2019-03-19T04:48:04.899Z,62.62
2019-03-19T04:49:04.914Z,63.10
2019-03-19T04:50:04.913Z,63.00
2019-03-19T04:51:04.908Z,62.91
2019-03-19T04:52:04.912Z,62.91
2019-03-19T04:53:04.916Z,62.72
2019-03-19T04:54:04.914Z,62.91
2019-03-19T04:55:04.923Z,62.91
2019-03-19T04:56:04.923Z,62.25
2019-03-19T04:57:04.922Z,62.53
2019-03-19T04:58:04.924Z,62.15
2019-03-19T04:59:04.929Z,62.81
2019-03-19T05:00:04.935Z,63.57
2019-03-19T05:01:04.933Z,63.95
2019-03-19T05:02:04.936Z,65.08
2019-03-19T05:03:04.942Z,65.64
2019-03-19T05:04:04.944Z,66.21
2019-03-19T05:05:04.948Z,67.15
2019-03-19T05:06:04.954Z,67.43
2019-03-19T05:07:04.950Z,67.81
2019-03-19T05:08:04.955Z,69.89
2019-03-19T05:09:04.956Z,70.54
2019-03-19T05:10:04.955Z,70.54
2019-03-19T05:11:04.962Z,70.07
2019-03-19T05:12:04.963Z,69.51
2019-03-19T05:13:04.964Z,69.38
2019-03-19T05:14:04.965Z,69.23
2019-03-19T05:15:04.969Z,68.66
2019-03-19T05:16:04.973Z,68.47
2019-03-19T05:17:04.977Z,67.97
2019-03-19T05:18:04.978Z,67.25
2019-03-19T05:19:04.987Z,66.93
2019-03-19T05:20:04.981Z,66.96
2019-03-19T05:21:04.983Z,66.77
2019-03-19T05:22:04.986Z,66.55
2019-03-19T05:23:04.993Z,66.68
2019-03-19T05:24:04.999Z,66.21
2019-03-19T05:25:04.994Z,67.02
2019-03-19T05:26:04.996Z,68.34
2019-03-19T05:27:05.040Z,69.76
2019-03-19T05:28:05.004Z,70.07
2019-03-19T05:29:05.003Z,69.95
2019-03-19T05:30:05.007Z,69.95
2019-03-19T05:31:05.007Z,69.00
2019-03-19T05:32:05.015Z,68.57
2019-03-19T05:33:05.014Z,68.06
2019-03-19T05:34:05.015Z,68.06
2019-03-19T05:35:05.017Z,69.95
2019-03-19T05:36:05.021Z,72.11
2019-03-19T05:37:05.021Z,72.81
2019-03-19T05:38:05.021Z,71.96
2019-03-19T05:39:05.023Z,70.83
2019-03-19T05:40:05.025Z,69.98
2019-03-19T05:41:05.031Z,69.13
2019-03-19T05:42:05.032Z,68.38
2019-03-19T05:43:05.037Z,67.91
2019-03-19T05:44:05.042Z,67.62
2019-03-19T05:45:05.042Z,68.19
2019-03-19T05:46:05.039Z,68.19
2019-03-19T05:47:05.046Z,67.81
2019-03-19T05:48:05.045Z,67.72
2019-03-19T05:49:05.046Z,67.81
2019-03-19T05:50:05.056Z,67.72
2019-03-19T05:51:05.056Z,67.62
2019-03-19T05:52:05.055Z,67.91
2019-03-19T05:53:05.056Z,69.23
2019-03-19T05:54:05.089Z,69.98
2019-03-19T05:55:05.064Z,70.14
2019-03-19T05:56:05.066Z,71.55
2019-03-19T05:57:05.065Z,73.72
2019-03-19T05:58:05.070Z,74.66
2019-03-19T05:59:05.072Z,74.57
2019-03-19T06:00:05.088Z,74.47
2019-03-19T06:01:05.077Z,73.15
2019-03-19T06:02:05.076Z,72.02
2019-03-19T06:03:05.081Z,72.68
2019-03-19T06:04:05.085Z,73.72
2019-03-19T06:05:05.088Z,76.73
2019-03-19T06:06:05.090Z,78.34
2019-03-19T06:07:05.089Z,77.58
2019-03-19T06:08:05.093Z,76.73
2019-03-19T06:09:05.093Z,75.42
2019-03-19T06:10:05.097Z,75.04
2019-03-19T06:11:05.099Z,74.66
2019-03-19T06:12:05.099Z,73.91
2019-03-19T06:13:05.101Z,73.15
2019-03-19T06:14:05.108Z,72.72
2019-03-19T06:15:05.108Z,72.06
2019-03-19T06:16:05.107Z,71.87
2019-03-19T06:17:05.110Z,71.64
2019-03-19T06:18:05.115Z,71.77
2019-03-19T06:19:05.118Z,72.25
2019-03-19T06:20:05.121Z,71.96
2019-03-19T06:21:05.122Z,71.77
2019-03-19T06:22:05.121Z,70.92
2019-03-19T06:23:05.132Z,70.45
2019-03-19T06:24:05.130Z,69.85
2019-03-19T06:25:05.128Z,70.04
2019-03-19T06:26:05.137Z,70.73
2019-03-19T06:27:05.138Z,70.42
2019-03-19T06:28:05.239Z,71.87
2019-03-19T06:29:05.141Z,73.94
2019-03-19T06:30:05.143Z,74.66
2019-03-19T06:31:05.147Z,75.73
2019-03-19T06:32:05.145Z,75.92
2019-03-19T06:33:05.145Z,75.17
2019-03-19T06:34:05.150Z,73.38
2019-03-19T06:35:05.149Z,72.53
2019-03-19T06:36:05.155Z,72.25
2019-03-19T06:37:05.161Z,71.64
2019-03-19T06:38:05.160Z,72.15
2019-03-19T06:39:05.165Z,72.15
2019-03-19T06:40:05.170Z,71.64
2019-03-19T06:41:05.167Z,70.54
2019-03-19T06:42:05.166Z,69.79
2019-03-19T06:43:05.171Z,69.60
2019-03-19T06:44:05.171Z,69.04
2019-03-19T06:45:05.176Z,68.85
2019-03-19T06:46:05.179Z,68.76
2019-03-19T06:47:05.180Z,68.76
2019-03-19T06:48:05.183Z,68.66
2019-03-19T06:49:05.181Z,68.38
2019-03-19T06:50:05.186Z,67.81
2019-03-19T06:51:05.191Z,67.62
2019-03-19T06:52:05.191Z,67.81
2019-03-19T06:53:05.194Z,67.25
2019-03-19T06:54:05.197Z,67.15
2019-03-19T06:55:05.201Z,67.06
2019-03-19T06:56:05.229Z,66.40
2019-03-19T06:57:05.201Z,66.02
2019-03-19T06:58:10.861Z,66.11
2019-03-19T06:59:05.208Z,65.92
2019-03-19T07:00:05.210Z,65.73
2019-03-19T07:01:05.211Z,65.73
2019-03-19T07:02:05.214Z,65.64
2019-03-19T07:03:05.214Z,65.64
2019-03-19T07:04:05.219Z,65.64
2019-03-19T07:05:05.223Z,65.36
2019-03-19T07:06:05.225Z,65.17
2019-03-19T07:07:05.225Z,64.61
2019-03-19T07:08:05.237Z,64.98
2019-03-19T07:09:05.232Z,63.95
2019-03-19T07:10:05.231Z,64.51
2019-03-19T07:11:05.233Z,64.89
2019-03-19T07:12:05.242Z,65.45
2019-03-19T07:13:05.241Z,65.83
2019-03-19T07:14:05.245Z,65.73
2019-03-19T07:15:05.247Z,65.64
2019-03-19T07:16:05.250Z,64.79
2019-03-19T07:17:05.253Z,64.14
2019-03-19T07:18:05.255Z,63.95
2019-03-19T07:19:05.256Z,65.45
2019-03-19T07:20:05.259Z,65.73
2019-03-19T07:21:05.259Z,66.21
2019-03-19T07:22:05.266Z,65.92
2019-03-19T07:23:05.264Z,65.92
2019-03-19T07:24:05.271Z,65.45
2019-03-19T07:25:05.273Z,65.26
2019-03-19T07:26:05.275Z,64.61
2019-03-19T07:27:05.277Z,64.36
2019-03-19T07:28:05.279Z,63.79
2019-03-19T07:29:05.293Z,64.36
2019-03-19T07:30:05.390Z,63.70
2019-03-19T07:31:05.285Z,61.99
2019-03-19T07:32:05.290Z,62.37
2019-03-19T07:33:05.291Z,63.51
2019-03-19T07:34:05.295Z,62.47
2019-03-19T07:35:05.397Z,61.52
2019-03-19T07:36:06.393Z,60.58
2019-03-19T07:37:05.300Z,60.96
2019-03-19T07:38:05.303Z,60.96
2019-03-19T07:39:05.308Z,62.56
2019-03-19T07:40:05.309Z,63.41
2019-03-19T07:41:05.316Z,63.51
2019-03-19T07:42:05.316Z,62.47
2019-03-19T07:43:05.317Z,64.26
2019-03-19T07:44:05.323Z,64.64
2019-03-19T07:45:05.324Z,63.70
2019-03-19T07:46:05.325Z,63.41
2019-03-19T07:47:05.329Z,63.51
2019-03-19T07:48:05.329Z,62.94
2019-03-19T07:49:05.335Z,63.89
2019-03-19T07:50:05.332Z,64.07
2019-03-19T07:51:05.335Z,63.41
2019-03-19T07:52:05.346Z,64.73
2019-03-19T07:53:05.345Z,63.98
2019-03-19T07:54:05.343Z,63.41
2019-03-19T07:55:05.347Z,63.60
2019-03-19T07:56:05.352Z,64.54
2019-03-19T07:57:05.353Z,64.45
2019-03-19T07:58:05.399Z,63.51
2019-03-19T07:59:05.357Z,64.36
2019-03-19T08:00:05.361Z,63.03
2019-03-19T08:01:05.361Z,62.28
2019-03-19T08:02:05.362Z,61.90
2019-03-19T08:03:15.571Z,61.80
2019-03-19T08:04:05.370Z,62.84
2019-03-19T08:05:05.374Z,64.07
2019-03-19T08:06:05.383Z,64.20
2019-03-19T08:07:05.380Z,62.69
2019-03-19T08:08:05.380Z,62.50
2019-03-19T08:09:05.383Z,62.88
2019-03-19T08:10:05.388Z,61.65
2019-03-19T08:11:05.387Z,62.02
2019-03-19T08:12:05.390Z,62.50
2019-03-19T08:13:05.391Z,64.48
2019-03-19T08:14:05.399Z,64.58
2019-03-19T08:15:05.402Z,65.23
2019-03-19T08:16:05.458Z,64.39
2019-03-19T08:17:05.402Z,63.73
2019-03-19T08:18:05.410Z,62.12
2019-03-19T08:19:05.414Z,62.50
2019-03-19T08:20:05.413Z,63.10
2019-03-19T08:21:05.418Z,61.65
2019-03-19T08:22:05.420Z,60.61
2019-03-19T08:23:05.424Z,62.31
2019-03-19T08:24:05.426Z,63.73
2019-03-19T08:25:05.429Z,63.73
2019-03-19T08:26:05.432Z,62.12
2019-03-19T08:27:05.431Z,60.89
2019-03-19T08:28:05.434Z,58.53
2019-03-19T08:29:05.455Z,58.25
2019-03-19T08:30:05.442Z,58.34
2019-03-19T08:31:05.444Z,59.95
2019-03-19T08:32:05.448Z,61.74
2019-03-19T08:33:05.452Z,59.19
2019-03-19T08:34:05.456Z,57.78
2019-03-19T08:35:05.513Z,58.63
2019-03-19T08:36:09.489Z,58.63
2019-03-19T08:37:05.463Z,59.00
2019-03-19T08:38:05.465Z,57.68
2019-03-19T08:39:05.468Z,56.52
2019-03-19T08:40:05.476Z,58.53
2019-03-19T08:41:05.478Z,58.53
2019-03-19T08:42:05.478Z,58.25
2019-03-19T08:43:05.479Z,58.72
2019-03-19T08:44:05.484Z,59.00
2019-03-19T08:45:05.489Z,58.82
2019-03-19T08:46:05.483Z,58.53
2019-03-19T08:47:05.491Z,59.48
2019-03-19T08:48:05.490Z,61.30
2019-03-19T08:49:05.493Z,60.17
2019-03-19T08:50:05.499Z,59.89
2019-03-19T08:51:05.498Z,61.30
2019-03-19T08:52:05.501Z,61.02
2019-03-19T08:53:05.503Z,59.32
2019-03-19T08:54:05.511Z,59.86
2019-03-19T08:55:05.513Z,59.57
2019-03-19T08:56:05.523Z,58.53
2019-03-19T08:57:05.531Z,60.89
2019-03-19T08:58:05.521Z,60.52
2019-03-19T08:59:06.293Z,61.08
2019-03-19T09:00:05.528Z,60.93
2019-03-19T09:01:05.529Z,61.02
2019-03-19T09:02:05.531Z,59.03
2019-03-19T09:03:05.539Z,57.81
2019-03-19T09:04:05.538Z,57.24
2019-03-19T09:05:05.541Z,57.40
2019-03-19T09:06:05.546Z,58.65
2019-03-19T09:07:05.556Z,58.65
2019-03-19T09:08:05.555Z,57.71
2019-03-19T09:09:05.556Z,57.71
2019-03-19T09:10:05.561Z,58.00
2019-03-19T09:11:05.568Z,59.41
2019-03-19T09:12:05.564Z,59.41
2019-03-19T09:13:05.569Z,57.24
2019-03-19T09:14:05.575Z,57.43
2019-03-19T09:15:05.577Z,55.54
2019-03-19T09:16:05.582Z,56.58
2019-03-19T09:17:05.586Z,57.34
2019-03-19T09:18:05.589Z,55.73
2019-03-19T09:19:05.589Z,55.07
2019-03-19T09:20:05.595Z,53.63
2019-03-19T09:21:05.601Z,53.72
2019-03-19T09:22:05.601Z,55.26
2019-03-19T09:23:05.602Z,56.01
2019-03-19T09:24:05.607Z,56.48
2019-03-19T09:25:05.615Z,57.46
2019-03-19T09:26:05.617Z,57.37
2019-03-19T09:27:05.623Z,56.70
2019-03-19T09:28:05.622Z,56.51
2019-03-19T09:29:16.097Z,57.18
2019-03-19T09:30:05.632Z,56.80
2019-03-19T09:31:05.639Z,56.04
2019-03-19T09:32:05.639Z,57.46
2019-03-19T09:33:05.641Z,57.39
2019-03-19T09:34:05.647Z,55.94
2019-03-19T09:35:05.695Z,56.07
2019-03-19T09:36:05.657Z,57.68
2019-03-19T09:37:05.659Z,57.68
2019-03-19T09:38:05.663Z,57.77
2019-03-19T09:39:05.671Z,58.94
2019-03-19T09:40:05.674Z,56.07
2019-03-19T09:41:05.679Z,57.87
2019-03-19T09:42:05.686Z,57.30
2019-03-19T09:43:05.682Z,55.98
2019-03-19T09:44:05.689Z,52.95
2019-03-19T09:45:05.695Z,53.42
2019-03-19T09:46:05.698Z,56.07
2019-03-19T09:47:05.705Z,56.92
2019-03-19T09:48:05.705Z,55.41
2019-03-19T09:49:05.718Z,55.38
2019-03-19T09:50:05.718Z,57.96
2019-03-19T09:51:05.719Z,58.62
2019-03-19T09:52:05.729Z,56.51
2019-03-19T09:53:05.732Z,58.12
2019-03-19T09:54:05.738Z,58.50
2019-03-19T09:55:05.746Z,57.74
2019-03-19T09:56:05.766Z,58.87
2019-03-19T09:57:05.751Z,57.24
2019-03-19T09:58:05.755Z,57.81
2019-03-19T09:59:05.757Z,58.12
2019-03-19T10:00:05.763Z,58.62
2019-03-19T10:01:05.770Z,58.34
2019-03-19T10:02:05.774Z,57.33
2019-03-19T10:03:05.776Z,56.76
2019-03-19T10:04:05.783Z,54.49
2019-03-19T10:05:05.791Z,54.30
2019-03-19T10:06:14.034Z,54.02
2019-03-19T10:07:06.542Z,53.36
2019-03-19T10:08:05.804Z,51.81
2019-03-19T10:09:05.805Z,51.72
2019-03-19T10:10:05.817Z,52.19
2019-03-19T10:11:05.819Z,53.42
2019-03-19T10:12:05.822Z,54.55
2019-03-19T10:13:05.828Z,55.63
2019-03-19T10:14:05.836Z,56.01
2019-03-19T10:15:05.841Z,54.58
2019-03-19T10:16:07.666Z,50.80
2019-03-19T10:17:05.850Z,49.16
2019-03-19T10:18:05.857Z,49.73
2019-03-19T10:19:05.858Z,50.04
2019-03-19T10:20:05.867Z,50.21
2019-03-19T10:21:05.878Z,50.52
2019-03-19T10:22:05.878Z,51.18
2019-03-19T10:23:05.880Z,52.22
2019-03-19T10:24:05.891Z,51.37
2019-03-19T10:25:05.896Z,52.03
2019-03-19T10:26:05.903Z,51.46
2019-03-19T10:27:05.928Z,53.45
2019-03-19T10:28:05.918Z,53.47
2019-03-19T10:29:05.917Z,52.81
2019-03-19T10:30:05.924Z,49.41
2019-03-19T10:31:05.933Z,50.07
2019-03-19T10:32:05.938Z,50.82
2019-03-19T10:33:05.945Z,50.92
2019-03-19T10:34:05.947Z,48.65
2019-03-19T10:35:05.952Z,47.16
2019-03-19T10:36:05.962Z,48.58
2019-03-19T10:37:05.964Z,47.63
2019-03-19T10:38:05.975Z,50.00
2019-03-19T10:39:05.978Z,48.58
2019-03-19T10:40:05.985Z,48.77
2019-03-19T10:41:05.996Z,46.02
2019-03-19T10:42:06.002Z,46.88
2019-03-19T10:43:06.008Z,47.72
2019-03-19T10:44:06.015Z,45.55
2019-03-19T10:45:06.019Z,45.64
2019-03-19T10:46:06.028Z,45.45
2019-03-19T10:47:06.044Z,48.58
2019-03-19T10:48:06.043Z,47.34
2019-03-19T10:49:06.057Z,46.56
2019-03-19T10:50:06.052Z,45.69
2019-03-19T10:51:06.062Z,46.92
2019-03-19T10:52:06.071Z,46.17
2019-03-19T10:53:06.072Z,44.93
2019-03-19T10:54:06.084Z,45.22
2019-03-19T10:55:06.090Z,46.73
2019-03-19T10:56:06.097Z,47.02
2019-03-19T10:57:06.100Z,48.82
2019-03-19T10:58:10.870Z,51.11
2019-03-19T10:59:06.114Z,48.18
2019-03-19T11:00:06.121Z,45.81
2019-03-19T11:01:06.131Z,42.88
2019-03-19T11:02:06.134Z,42.69
2019-03-19T11:03:06.144Z,42.30
2019-03-19T11:04:06.147Z,40.70
2019-03-19T11:05:06.154Z,39.28
2019-03-19T11:06:06.162Z,40.98
2019-03-19T11:07:06.170Z,41.64
2019-03-19T11:08:06.174Z,42.90
2019-03-19T11:09:06.181Z,42.90
2019-03-19T11:10:06.195Z,42.30
2019-03-19T11:11:06.210Z,41.08
2019-03-19T11:12:06.201Z,39.75
2019-03-19T11:13:06.211Z,40.25
2019-03-19T11:14:06.218Z,37.97
2019-03-19T11:15:06.228Z,36.74
2019-03-19T11:16:06.234Z,38.24
2019-03-19T11:17:06.237Z,40.41
2019-03-19T11:18:06.246Z,43.75
2019-03-19T11:19:06.259Z,44.34
2019-03-19T11:20:06.258Z,43.01
2019-03-19T11:21:06.263Z,42.44
2019-03-19T11:22:06.271Z,41.88
2019-03-19T11:23:06.287Z,42.90
2019-03-19T11:24:06.289Z,42.80
2019-03-19T11:25:06.302Z,44.51
2019-03-19T11:26:06.301Z,43.20
2019-03-19T11:27:06.315Z,41.78
2019-03-19T11:28:06.321Z,41.47
2019-03-19T11:29:06.336Z,41.17
2019-03-19T11:30:06.683Z,40.41
2019-03-19T11:31:06.333Z,40.60
2019-03-19T11:32:06.347Z,42.71
2019-03-19T11:33:06.360Z,41.57
2019-03-19T11:34:06.357Z,44.79
2019-03-19T11:35:06.382Z,43.37
2019-03-19T11:36:06.374Z,39.68
2019-03-19T11:37:06.379Z,39.39
2019-03-19T11:38:06.386Z,39.28
2019-03-19T11:39:06.394Z,41.64
2019-03-19T11:40:06.407Z,40.87
2019-03-19T11:41:07.420Z,42.30
2019-03-19T11:42:06.423Z,43.82
2019-03-19T11:43:06.425Z,42.30
2019-03-19T11:44:06.438Z,44.13
2019-03-19T11:45:06.444Z,43.08
2019-03-19T11:46:06.448Z,40.60
2019-03-19T11:47:06.460Z,41.27
2019-03-19T11:48:06.465Z,41.64
2019-03-19T11:49:06.476Z,42.23
2019-03-19T11:50:06.475Z,40.70
2019-03-19T11:51:06.487Z,40.51
2019-03-19T11:52:06.494Z,41.64
2019-03-19T11:53:06.503Z,39.65
2019-03-19T11:54:06.510Z,41.83
2019-03-19T11:55:06.516Z,44.60
2019-03-19T11:56:06.524Z,44.03
2019-03-19T11:57:06.531Z,43.77
2019-03-19T11:58:06.535Z,43.11
2019-03-19T11:59:06.545Z,42.82
2019-03-19T12:00:11.166Z,42.44
2019-03-19T12:01:06.557Z,41.21
2019-03-19T12:02:06.565Z,40.74
2019-03-19T12:03:12.710Z,43.20
2019-03-19T12:04:06.583Z,40.91
2019-03-19T12:05:06.591Z,40.15
2019-03-19T12:06:06.594Z,40.53
2019-03-19T12:07:06.602Z,40.22
2019-03-19T12:08:06.612Z,39.94
2019-03-19T12:09:06.618Z,43.91
2019-03-19T12:10:06.627Z,43.82
2019-03-19T12:11:06.634Z,42.59
2019-03-19T12:12:06.641Z,44.60
2019-03-19T12:13:06.653Z,43.65
2019-03-19T12:14:06.655Z,40.98
2019-03-19T12:15:06.667Z,40.39
2019-03-19T12:16:06.675Z,43.07
2019-03-19T12:17:06.683Z,42.88
2019-03-19T12:18:06.690Z,43.63
2019-03-19T12:19:06.697Z,42.40
2019-03-19T12:20:06.701Z,41.64
2019-03-19T12:21:06.706Z,41.55
2019-03-19T12:22:06.716Z,42.99
2019-03-19T12:23:06.723Z,41.74
2019-03-19T12:24:06.735Z,41.38
2019-03-19T12:25:06.738Z,41.55
2019-03-19T12:26:06.749Z,41.64
2019-03-19T12:27:06.759Z,42.23
2019-03-19T12:28:06.764Z,41.40
2019-03-19T12:29:06.772Z,41.97
2019-03-19T12:30:06.780Z,41.05
2019-03-19T12:31:06.788Z,40.85
2019-03-19T12:32:06.790Z,39.90
2019-03-19T12:33:06.807Z,37.88
2019-03-19T12:34:06.804Z,40.06
2019-03-19T12:35:06.821Z,39.77
2019-03-19T12:36:06.824Z,40.03
2019-03-19T12:37:06.834Z,40.51
2019-03-19T12:38:06.843Z,41.47
2019-03-19T12:39:06.844Z,41.38
2019-03-19T12:40:06.856Z,41.28
2019-03-19T12:41:06.864Z,41.97
2019-03-19T12:42:06.866Z,41.12
2019-03-19T12:43:06.875Z,40.83
2019-03-19T12:44:06.887Z,40.26
2019-03-19T12:45:06.958Z,39.29
2019-03-19T12:46:06.898Z,39.68
2019-03-19T12:47:06.909Z,39.01
2019-03-19T12:48:06.915Z,39.41
2019-03-19T12:49:06.922Z,39.68
2019-03-19T12:50:06.935Z,40.26
2019-03-19T12:51:06.938Z,40.74
2019-03-19T12:52:06.945Z,38.82